Time;durP1;ratioP1;P1;durP2;ratioP2;P2;SDS_P1;SDS_P2;PMS_P1;PMS_P2;Temp;Humidity;BMP_temperature;BMP_pressure;BME280_temperature;BME280_humidity;BME280_pressure;Samples;Min_cycle;Max_cycle;Signal;HPM_P1;HPM_P2
2022/11/01 00:01:14;;;;;;;68.30;36.90;;;;;;;8.17;78.48;99076.92;86003;1288;98473;-76
2022/11/01 00:03:15;;;;;;;76.60;38.20;;;;;;;8.18;78.39;99077.04;85942;1290;23808;-78
2022/11/01 00:05:17;;;;;;;76.70;38.20;;;;;;;8.18;78.77;99073.71;85960;1290;24408;-79
2022/11/01 00:07:18;;;;;;;91.10;42.00;;;;;;;8.18;78.75;99070.02;86085;1291;99588;-76
2022/11/01 00:09:20;;;;;;;71.80;40.80;;;;;;;8.18;78.87;99068.61;86104;1291;24244;-78
2022/11/01 00:11:21;;;;;;;90.70;42.00;;;;;;;8.17;79.03;99062.90;85955;1283;25031;-78
2022/11/01 00:13:23;;;;;;;77.10;40.30;;;;;;;8.21;79.05;99066.96;85931;1291;98108;-78
2022/11/01 00:15:25;;;;;;;77.00;41.10;;;;;;;8.22;79.06;99063.41;85829;1283;22578;-77
2022/11/01 00:17:26;;;;;;;75.40;39.20;;;;;;;8.24;78.95;99067.04;86134;1284;24245;-79
2022/11/01 00:19:28;;;;;;;69.90;36.50;;;;;;;8.22;78.84;99063.23;85903;1297;99020;-79
2022/11/01 00:21:29;;;;;;;68.10;37.80;;;;;;;8.20;78.61;99060.88;85860;1289;22508;-77
2022/11/01 00:23:31;;;;;;;62.30;35.60;;;;;;;8.16;78.80;99061.54;85954;1290;25373;-78
2022/11/01 00:25:33;;;;;;;63.70;35.40;;;;;;;8.13;78.60;99062.17;85833;1291;99240;-79
2022/11/01 00:27:34;;;;;;;64.40;36.60;;;;;;;8.09;78.64;99066.72;86147;1288;25441;-78
2022/11/01 00:29:36;;;;;;;64.20;36.00;;;;;;;8.05;78.72;99062.31;85970;1291;25046;-79
2022/11/01 00:31:37;;;;;;;66.30;35.90;;;;;;;8.05;78.47;99061.41;85901;1283;99228;-78
2022/11/01 00:33:39;;;;;;;71.80;37.10;;;;;;;8.05;78.55;99058.30;86048;1297;22501;-78
2022/11/01 00:35:40;;;;;;;66.00;37.50;;;;;;;8.03;78.60;99057.31;85982;1283;22728;-79
2022/11/01 00:37:42;;;;;;;63.30;36.50;;;;;;;7.99;78.40;99053.60;86015;1289;98165;-79
2022/11/01 00:39:43;;;;;;;62.30;35.90;;;;;;;7.96;78.94;99052.97;85792;1299;22554;-79
2022/11/01 00:41:45;;;;;;;68.80;34.60;;;;;;;7.94;78.53;99059.34;86089;1290;22545;-79
2022/11/01 00:43:47;;;;;;;66.40;36.60;;;;;;;7.93;78.87;99053.27;85931;1284;97917;-78
2022/11/01 00:45:50;;;;;;;68.30;37.70;;;;;;;7.92;78.57;99054.52;86109;1291;23426;-77
2022/11/01 00:47:51;;;;;;;71.00;36.60;;;;;;;7.92;78.80;99051.91;86004;1291;24286;-77
2022/11/01 00:49:53;;;;;;;68.10;37.90;;;;;;;7.92;78.64;99051.38;85844;1283;99287;-77
2022/11/01 00:51:54;;;;;;;76.80;37.80;;;;;;;7.93;78.83;99052.04;85964;1283;22533;-76
2022/11/01 00:53:56;;;;;;;80.60;39.90;;;;;;;7.93;79.27;99050.98;85926;1297;22591;-76
2022/11/01 00:56:05;;;;;;;71.80;38.00;;;;;;;7.93;79.06;99051.52;85892;1289;99204;-78
2022/11/01 00:58:08;;;;;;;74.90;37.70;;;;;;;7.93;79.40;99052.38;85985;1296;22602;-76
2022/11/01 01:00:11;;;;;;;66.90;34.80;;;;;;;7.93;79.52;99045.38;85806;1291;25563;-78
2022/11/01 01:02:12;;;;;;;70.90;36.40;;;;;;;7.93;78.91;99042.58;86012;1291;99180;-78
2022/11/01 01:04:14;;;;;;;71.10;36.50;;;;;;;7.93;79.20;99040.16;86036;1283;24269;-78
2022/11/01 01:06:15;;;;;;;70.00;38.80;;;;;;;7.92;78.95;99037.39;86082;1284;22959;-79
2022/11/01 01:08:18;;;;;;;72.30;37.50;;;;;;;7.91;79.37;99028.14;85892;1283;98061;-79
2022/11/01 01:10:20;;;;;;;66.50;37.60;;;;;;;7.90;79.11;99028.38;85912;1286;24051;-76
2022/11/01 01:12:22;;;;;;;68.50;36.80;;;;;;;7.88;79.14;99021.45;85915;1284;22502;-79
2022/11/01 01:14:24;;;;;;;79.00;37.50;;;;;;;7.85;79.69;99025.05;85910;1290;98286;-78
2022/11/01 01:16:25;;;;;;;77.60;37.30;;;;;;;7.84;79.62;99021.40;86148;1290;22497;-75
2022/11/01 01:18:27;;;;;;;81.20;40.20;;;;;;;7.83;79.33;99014.27;86064;1284;25424;-77
2022/11/01 01:20:29;;;;;;;68.10;38.90;;;;;;;7.84;79.57;99011.45;86044;1291;97726;-76
2022/11/01 01:22:30;;;;;;;80.70;41.30;;;;;;;7.84;79.68;99008.45;85726;1286;25278;-78
2022/11/01 01:24:32;;;;;;;71.20;40.00;;;;;;;7.85;79.64;99012.27;85869;1291;22501;-78
2022/11/01 01:26:34;;;;;;;63.70;34.70;;;;;;;7.86;79.66;99018.38;85947;1293;24536;-78
2022/11/01 01:28:36;;;;;;;77.90;34.60;;;;;;;7.85;79.52;99020.69;86079;1291;23831;-78
2022/11/01 01:30:41;;;;;;;57.50;31.90;;;;;;;7.83;79.49;99020.92;85837;1291;99251;-78
2022/11/01 01:32:42;;;;;;;56.40;30.30;;;;;;;7.80;79.32;99007.40;86003;1289;22497;-78
2022/11/01 01:34:44;;;;;;;55.70;30.60;;;;;;;7.77;79.45;99002.41;86030;1291;22537;-78
2022/11/01 01:36:46;;;;;;;70.40;31.30;;;;;;;7.75;79.15;98999.38;85785;1293;99182;-78
2022/11/01 01:38:52;;;;;;;52.30;30.00;;;;;;;7.70;79.24;99005.30;85914;1294;24255;-79
2022/11/01 01:40:53;;;;;;;62.20;30.50;;;;;;;7.64;79.74;99006.71;86063;1290;22563;-78
2022/11/01 01:42:55;;;;;;;51.10;31.40;;;;;;;7.61;79.39;99008.05;85972;1291;98800;-77
2022/11/01 01:44:56;;;;;;;53.30;29.10;;;;;;;7.57;79.15;99007.14;86065;1291;22526;-78
2022/11/01 01:46:58;;;;;;;58.10;31.70;;;;;;;7.57;79.20;99007.34;86081;1297;22488;-77
2022/11/01 01:48:59;;;;;;;57.00;31.50;;;;;;;7.54;79.45;98996.40;85898;1291;98074;-78
2022/11/01 01:51:05;;;;;;;68.40;32.70;;;;;;;7.58;79.49;98998.20;86044;1291;25312;-77
2022/11/01 01:53:15;;;;;;;54.80;30.80;;;;;;;7.58;79.50;99002.39;86028;1292;22495;-79
2022/11/01 01:55:24;;;;;;;65.50;32.80;;;;;;;7.58;79.51;99002.55;85936;1284;98836;-78
2022/11/01 01:57:26;;;;;;;61.60;33.30;;;;;;;7.57;79.69;99005.40;85871;1293;22652;-78
2022/11/01 01:59:28;;;;;;;70.60;33.90;;;;;;;7.57;79.34;99004.72;86129;1297;23039;-77
2022/11/01 02:01:31;;;;;;;67.10;33.10;;;;;;;7.56;79.16;99002.13;85867;1290;99665;-78
2022/11/01 02:03:34;;;;;;;67.50;33.20;;;;;;;7.54;79.45;99003.06;85848;1292;22524;-78
2022/11/01 02:05:38;;;;;;;56.80;30.50;;;;;;;7.53;79.53;98998.19;86031;1290;23822;-78
2022/11/01 02:07:42;;;;;;;61.90;32.50;;;;;;;7.52;79.59;99000.33;85881;1290;99707;-78
2022/11/01 02:09:44;;;;;;;58.80;32.80;;;;;;;7.50;79.65;98996.02;85999;1283;24225;-80
2022/11/01 02:11:46;;;;;;;62.40;33.20;;;;;;;7.50;79.46;98992.19;86029;1292;22545;-77
2022/11/01 02:13:48;;;;;;;65.70;31.80;;;;;;;7.49;79.56;98990.45;85896;1288;98243;-77
2022/11/01 02:16:35;;;;;;;50.10;31.60;;;;;;;7.51;79.57;98990.95;85977;1291;25333;-78
2022/11/01 02:18:56;;;;;;;65.00;32.60;;;;;;;7.51;79.74;98994.27;85808;1291;98284;-76
2022/11/01 02:21:34;;;;;;;60.40;33.70;;;;;;;7.51;79.58;98999.33;86102;1287;22636;-78
2022/11/01 02:23:45;;;;;;;66.00;34.90;;;;;;;7.50;79.96;98997.09;85922;1291;24409;-78
2022/11/01 02:26:05;;;;;;;68.40;34.50;;;;;;;7.50;79.78;98990.08;86022;1284;98650;-77
2022/11/01 02:28:19;;;;;;;65.50;33.70;;;;;;;7.50;79.72;98994.27;86053;1291;22559;-77
2022/11/01 02:30:23;;;;;;;62.60;33.00;;;;;;;7.52;79.39;98991.08;86013;1297;22543;-77
2022/11/01 02:32:54;;;;;;;67.00;34.10;;;;;;;7.50;79.61;98990.44;85957;1291;100823;-78
2022/11/01 02:35:12;;;;;;;67.60;33.90;;;;;;;7.49;79.65;98990.46;85983;1302;23501;-78
2022/11/01 02:37:40;;;;;;;62.20;34.40;;;;;;;7.47;79.41;98995.26;85949;1293;99241;-78
2022/11/01 02:39:48;;;;;;;60.80;32.00;;;;;;;7.47;79.61;99001.38;86075;1290;22566;-77
2022/11/01 02:42:08;;;;;;;70.90;32.70;;;;;;;7.47;79.84;99001.55;86064;1297;22665;-77
2022/11/01 02:44:22;;;;;;;70.20;33.60;;;;;;;7.45;79.68;98999.36;85913;1297;99206;-78
2022/11/01 02:48:48;;;;;;;63.00;34.20;;;;;;;7.41;79.64;98997.59;85669;1315;98192;-77
2022/11/01 02:50:57;;;;;;;68.10;34.20;;;;;;;7.41;79.72;98995.13;86477;1306;24369;-77
2022/11/01 02:53:00;;;;;;;69.00;35.20;;;;;;;7.42;79.73;98994.73;86006;1298;22528;-78
2022/11/01 02:55:29;;;;;;;70.50;34.80;;;;;;;7.42;79.87;98987.73;85948;1297;98271;-76
2022/11/01 02:57:39;;;;;;;74.50;37.20;;;;;;;7.42;80.00;98990.02;86033;1291;22724;-78
2022/11/01 02:59:46;;;;;;;91.30;35.70;;;;;;;7.43;79.90;98998.75;86130;1287;22519;-77
2022/11/01 03:02:04;;;;;;;172.70;41.60;;;;;;;7.43;79.90;98997.86;85855;1291;99279;-78
2022/11/01 03:04:05;;;;;;;242.80;44.80;;;;;;;7.41;79.77;99000.55;85903;1291;22511;-76
2022/11/01 03:06:22;;;;;;;276.20;48.20;;;;;;;7.41;79.97;99001.61;86015;1298;22495;-78
2022/11/01 03:08:34;;;;;;;183.80;47.10;;;;;;;7.41;80.13;98995.15;85865;1297;99057;-78
2022/11/01 03:10:48;;;;;;;253.70;46.10;;;;;;;7.40;80.11;98996.56;85986;1305;22467;-76
2022/11/01 03:13:04;;;;;;;257.80;47.20;;;;;;;7.41;80.12;98995.15;85851;1313;100868;-76
2022/11/01 03:15:23;;;;;;;201.60;48.30;;;;;;;7.42;79.91;98987.58;85768;1301;22574;-77
2022/11/01 03:17:32;;;;;;;255.20;48.90;;;;;;;7.44;80.10;98987.15;85959;1314;22531;-77
2022/11/01 03:19:42;;;;;;;338.80;50.70;;;;;;;7.44;80.39;98982.78;86034;1296;99476;-77
2022/11/01 03:22:08;;;;;;;302.30;50.20;;;;;;;7.42;80.26;98983.55;86036;1314;22453;-77
2022/11/01 03:24:27;;;;;;;251.30;49.00;;;;;;;7.44;80.37;98984.38;86065;1290;24248;-75
2022/11/01 03:26:32;;;;;;;260.80;48.50;;;;;;;7.43;80.46;98987.36;86000;1298;98200;-77
2022/11/01 03:28:48;;;;;;;275.10;48.90;;;;;;;7.44;80.57;98984.55;85910;1291;22971;-76
2022/11/01 03:30:58;;;;;;;397.80;49.00;;;;;;;7.46;80.52;98980.61;85878;1294;99665;-76
2022/11/01 03:33:00;;;;;;;353.90;54.50;;;;;;;7.47;80.66;98980.05;86228;1291;22525;-77
2022/11/01 03:35:04;;;;;;;412.30;53.50;;;;;;;7.48;80.64;98981.59;86107;1297;22489;-75
2022/11/01 03:37:10;;;;;;;338.70;50.50;;;;;;;7.49;80.51;98983.12;86060;1286;98425;-76
2022/11/01 03:39:19;;;;;;;379.10;51.70;;;;;;;7.52;80.65;98987.95;85955;1301;23222;-79
2022/11/01 03:41:24;;;;;;;373.30;50.50;;;;;;;7.54;80.80;98985.05;85946;1293;22493;-77
2022/11/01 03:43:29;;;;;;;361.30;52.00;;;;;;;7.56;80.94;98978.00;85815;1291;99599;-76
2022/11/01 03:45:34;;;;;;;293.40;48.10;;;;;;;7.59;81.05;98981.92;85855;1289;22555;-78
2022/11/01 03:47:36;;;;;;;367.80;48.50;;;;;;;7.61;80.79;98984.83;85971;1298;22655;-76
2022/11/01 03:49:38;;;;;;;508.40;52.80;;;;;;;7.63;80.71;98990.68;85945;1298;99680;-76
2022/11/01 03:51:41;;;;;;;465.00;51.30;;;;;;;7.66;81.06;98989.70;85972;1300;23482;-77
2022/11/01 03:53:42;;;;;;;592.00;57.20;;;;;;;7.67;80.89;98992.45;85928;1298;22512;-77
2022/11/01 03:55:44;;;;;;;464.80;52.40;;;;;;;7.68;80.96;98992.77;85882;1296;99365;-76
2022/11/01 03:57:48;;;;;;;481.90;52.70;;;;;;;7.69;81.23;98992.03;85997;1290;22547;-77
2022/11/01 03:59:49;;;;;;;340.80;51.50;;;;;;;7.70;81.14;99000.22;85931;1312;22665;-76
2022/11/01 04:01:51;;;;;;;233.70;50.70;;;;;;;7.70;81.10;98988.15;85924;1293;98125;-77
2022/11/01 04:03:53;;;;;;;297.70;52.70;;;;;;;7.71;81.21;98987.61;85897;1299;25163;-77
2022/11/01 04:05:54;;;;;;;174.50;53.20;;;;;;;7.71;81.09;98986.56;85934;1289;23038;-77
2022/11/01 04:07:56;;;;;;;217.10;47.90;;;;;;;7.71;81.12;98984.63;85804;1299;98222;-77
2022/11/01 04:09:57;;;;;;;232.60;50.50;;;;;;;7.72;81.12;98989.15;85914;1291;22587;-76
2022/11/01 04:11:59;;;;;;;246.90;53.60;;;;;;;7.73;81.08;98982.46;85921;1298;22491;-77
2022/11/01 04:21:05;;;;;;;286.00;52.10;;;;;;;7.75;81.22;98965.07;85990;1291;22660;-78
2022/11/01 04:23:07;;;;;;;356.40;53.80;;;;;;;7.77;81.07;98968.30;85918;1315;23487;-78
2022/11/01 04:25:09;;;;;;;485.60;58.80;;;;;;;7.78;81.10;98967.92;85832;1307;98252;-78
2022/11/01 04:27:10;;;;;;;398.50;57.10;;;;;;;7.80;81.27;98966.27;85725;1297;23956;-78
2022/11/01 04:29:12;;;;;;;423.40;60.80;;;;;;;7.82;80.98;98961.10;85707;1303;22522;-77
2022/11/01 04:31:13;;;;;;;414.90;56.90;;;;;;;7.85;81.39;98959.98;85937;1296;99480;-77
2022/11/01 04:33:15;;;;;;;546.10;59.40;;;;;;;7.88;81.42;98961.27;85984;1294;22512;-78
2022/11/01 04:35:17;;;;;;;573.90;60.70;;;;;;;7.90;81.27;98962.58;85980;1301;25281;-76
2022/11/01 04:37:18;;;;;;;451.70;57.80;;;;;;;7.90;81.61;98960.12;85842;1291;98308;-77
2022/11/01 04:39:20;;;;;;;477.80;56.90;;;;;;;7.95;81.39;98962.95;86045;1290;22820;-76
2022/11/01 04:41:26;;;;;;;483.30;61.80;;;;;;;7.97;81.29;98962.50;86020;1313;23131;-77
2022/11/01 04:43:28;;;;;;;510.50;58.80;;;;;;;7.98;81.12;98968.92;85905;1287;99416;-77
2022/11/01 04:45:30;;;;;;;457.80;57.90;;;;;;;8.00;81.46;98969.71;86039;1312;22477;-77
2022/11/01 04:47:31;;;;;;;425.90;58.20;;;;;;;8.03;81.46;98965.96;86047;1297;22515;-77
2022/11/01 04:49:33;;;;;;;378.40;54.90;;;;;;;8.05;81.88;98963.77;86049;1297;98174;-77
2022/11/01 04:51:35;;;;;;;472.80;57.50;;;;;;;8.07;81.59;98967.02;86025;1296;22454;-77
2022/11/01 04:53:36;;;;;;;485.60;58.60;;;;;;;8.09;81.67;98960.67;86148;1297;22688;-77
2022/11/01 04:55:38;;;;;;;365.70;58.30;;;;;;;8.10;81.72;98954.15;85955;1297;98279;-77
2022/11/01 04:57:41;;;;;;;383.30;57.00;;;;;;;8.11;81.66;98947.62;86046;1294;22486;-78
2022/11/01 04:59:42;;;;;;;330.40;54.10;;;;;;;8.12;82.03;98948.48;86142;1287;22500;-75
2022/11/01 05:01:44;;;;;;;386.40;57.00;;;;;;;8.12;81.71;98943.20;86137;1296;98121;-77
2022/11/01 05:03:47;;;;;;;346.90;55.10;;;;;;;8.13;81.80;98940.03;85979;1301;22552;-77
2022/11/01 05:05:48;;;;;;;418.30;60.30;;;;;;;8.14;81.83;98936.48;85952;1283;22607;-78
2022/11/01 05:07:50;;;;;;;428.10;59.10;;;;;;;8.15;81.63;98936.44;86011;1283;99823;-78
2022/11/01 05:09:52;;;;;;;387.80;58.00;;;;;;;8.17;81.60;98937.96;86093;1291;24543;-77
2022/11/01 05:11:53;;;;;;;364.80;59.80;;;;;;;8.16;82.00;98938.83;86158;1293;22497;-77
2022/11/01 05:13:55;;;;;;;431.30;55.20;;;;;;;8.18;81.93;98944.70;86107;1290;99930;-78
2022/11/01 05:15:56;;;;;;;360.80;56.20;;;;;;;8.21;82.28;98947.08;86334;1296;22550;-78
2022/11/01 05:17:58;;;;;;;356.00;55.30;;;;;;;8.22;81.63;98950.54;86221;1304;23340;-78
2022/11/01 05:19:59;;;;;;;314.60;53.50;;;;;;;8.21;81.83;98950.03;86026;1294;98960;-79
2022/11/01 05:22:02;;;;;;;395.90;58.60;;;;;;;8.21;81.82;98944.09;86108;1294;25260;-76
2022/11/01 05:24:04;;;;;;;331.70;57.50;;;;;;;8.21;81.80;98944.10;86099;1290;25381;-77
2022/11/01 05:26:06;;;;;;;293.20;56.90;;;;;;;8.21;81.86;98947.94;86168;1304;98079;-78
2022/11/01 05:28:12;;;;;;;376.00;56.70;;;;;;;8.23;81.85;98945.09;86302;1287;24258;-79
2022/11/01 05:30:15;;;;;;;277.80;55.20;;;;;;;8.21;82.13;98947.76;86395;1296;22530;-78
2022/11/01 05:32:17;;;;;;;351.20;57.90;;;;;;;8.20;81.91;98947.11;86305;1294;99049;-78
2022/11/01 05:34:19;;;;;;;297.20;56.70;;;;;;;8.19;82.04;98943.30;86302;1300;22955;-82
2022/11/01 05:36:20;;;;;;;350.90;57.90;;;;;;;8.20;82.08;98945.72;86276;1296;22766;-79
2022/11/01 05:38:22;;;;;;;344.60;55.50;;;;;;;8.20;81.65;98945.34;86184;1296;98266;-79
2022/11/01 05:40:24;;;;;;;322.60;55.00;;;;;;;8.20;82.14;98942.90;86458;1305;26527;-79
2022/11/01 05:42:26;;;;;;;303.30;57.30;;;;;;;8.20;82.02;98944.83;86275;1299;22525;-80
2022/11/01 05:44:28;;;;;;;263.60;59.20;;;;;;;8.20;82.01;98943.62;86285;1294;98861;-81
2022/11/01 05:46:30;;;;;;;323.50;58.60;;;;;;;8.19;81.91;98939.95;86188;1297;22506;-80
2022/11/01 05:48:32;;;;;;;409.50;59.00;;;;;;;8.19;81.95;98937.14;86428;1290;23345;-81
2022/11/01 05:50:33;;;;;;;294.50;58.00;;;;;;;8.19;82.26;98938.05;86245;1301;22605;-80
2022/11/01 05:52:35;;;;;;;333.40;62.60;;;;;;;8.22;82.35;98938.95;86221;1301;22828;-76
2022/11/01 05:54:36;;;;;;;271.10;59.50;;;;;;;8.24;82.41;98937.14;86172;1299;98692;-78
2022/11/01 05:56:38;;;;;;;216.70;59.00;;;;;;;8.25;82.18;98937.80;86365;1302;22539;-78
2022/11/01 05:58:40;;;;;;;279.40;56.50;;;;;;;8.25;82.33;98939.19;86425;1297;22510;-80
2022/11/01 06:00:42;;;;;;;294.70;52.00;;;;;;;8.25;82.13;98935.54;86220;1313;98238;-80
2022/11/01 06:02:43;;;;;;;300.60;53.30;;;;;;;8.25;82.25;98937.96;86272;1296;22747;-80
2022/11/01 06:04:45;;;;;;;255.80;46.80;;;;;;;8.26;82.46;98932.31;86339;1296;22492;-79
2022/11/01 06:06:46;;;;;;;236.90;53.80;;;;;;;8.24;81.99;98938.00;86179;1299;98942;-79
2022/11/01 06:08:48;;;;;;;308.60;55.70;;;;;;;8.23;82.44;98939.78;86395;1313;22544;-78
2022/11/01 06:10:50;;;;;;;228.40;56.30;;;;;;;8.21;82.26;98941.45;86138;1302;24075;-80
2022/11/01 06:12:53;;;;;;;265.80;58.80;;;;;;;8.22;82.20;98945.29;86168;1299;98988;-81
2022/11/01 06:14:55;;;;;;;156.10;47.90;;;;;;;8.21;82.11;98954.06;86360;1300;24334;-80
2022/11/01 06:16:56;;;;;;;224.70;53.50;;;;;;;8.17;82.24;98959.80;86328;1300;22664;-79
2022/11/01 06:18:58;;;;;;;219.90;54.00;;;;;;;8.14;82.16;98952.07;86307;1302;98308;-81
2022/11/01 06:21:00;;;;;;;252.20;50.70;;;;;;;8.18;82.46;98959.42;86380;1304;22494;-80
2022/11/01 06:23:08;;;;;;;188.70;49.50;;;;;;;8.18;82.35;98956.08;86302;1291;22502;-79
2022/11/01 06:25:11;;;;;;;194.70;50.40;;;;;;;8.19;82.32;98958.51;86094;1315;99010;-80
2022/11/01 06:27:14;;;;;;;150.80;47.20;;;;;;;8.20;82.29;98957.95;86183;1297;25285;-79
2022/11/01 06:29:16;;;;;;;208.70;46.40;;;;;;;8.20;82.44;98956.91;86264;1287;24352;-80
2022/11/01 06:31:18;;;;;;;125.20;44.20;;;;;;;8.20;82.22;98964.59;86236;1287;98162;-80
2022/11/01 06:33:20;;;;;;;227.70;46.00;;;;;;;8.21;82.59;98962.30;86356;1295;22965;-79
2022/11/01 06:35:21;;;;;;;276.40;44.60;;;;;;;8.21;82.33;98959.69;86337;1296;22518;-81
2022/11/01 06:37:23;;;;;;;181.00;42.20;;;;;;;8.22;82.33;98952.65;86498;1314;98660;-81
2022/11/01 06:39:25;;;;;;;167.30;42.90;;;;;;;8.21;82.58;98953.55;87213;1313;22141;-78
2022/11/01 06:41:27;;;;;;;187.50;43.90;;;;;;;8.20;82.45;98956.20;87549;1296;22476;-78
2022/11/01 06:43:29;;;;;;;189.40;45.10;;;;;;;8.21;82.36;98962.83;87619;1313;98094;-78
2022/11/01 06:45:31;;;;;;;177.10;44.40;;;;;;;8.22;82.49;98966.28;87342;1299;22436;-78
2022/11/01 06:47:33;;;;;;;207.90;44.60;;;;;;;8.22;82.65;98967.83;87324;1301;22545;-79
2022/11/01 06:49:34;;;;;;;199.60;42.60;;;;;;;8.23;82.31;98973.58;87323;1295;98116;-78
2022/11/01 06:51:36;;;;;;;175.60;43.00;;;;;;;8.22;82.36;98969.08;87322;1306;23817;-79
2022/11/01 06:53:37;;;;;;;149.90;41.70;;;;;;;8.22;82.77;98966.44;87574;1290;22495;-79
2022/11/01 06:55:39;;;;;;;120.70;36.70;;;;;;;8.23;82.42;98972.38;87419;1302;98374;-78
2022/11/01 06:57:41;;;;;;;138.90;34.60;;;;;;;8.23;82.53;98973.42;87433;1304;22580;-79
2022/11/01 06:59:43;;;;;;;140.70;36.20;;;;;;;8.22;82.53;98972.95;87301;1299;24271;-79
2022/11/01 07:01:45;;;;;;;93.10;34.70;;;;;;;8.21;82.32;98978.74;87485;1314;98467;-80
2022/11/01 07:03:51;;;;;;;71.30;33.20;;;;;;;8.23;82.34;98983.39;87111;1306;22877;-80
2022/11/01 07:05:53;;;;;;;78.60;33.30;;;;;;;8.22;82.45;98981.50;87341;1291;22499;-76
2022/11/01 07:07:55;;;;;;;85.20;28.90;;;;;;;8.23;82.64;98979.89;87236;1296;98090;-79
2022/11/01 07:09:56;;;;;;;87.70;29.60;;;;;;;8.25;82.48;98979.12;87366;1297;22583;-80
2022/11/01 07:11:58;;;;;;;83.40;30.80;;;;;;;8.26;82.72;98975.20;86855;1300;22483;-80
2022/11/01 07:13:59;;;;;;;93.70;26.10;;;;;;;8.28;82.64;98972.69;86849;1313;98229;-79
2022/11/01 07:16:02;;;;;;;91.60;26.60;;;;;;;8.30;82.69;98969.66;86985;1307;22478;-79
2022/11/01 07:18:07;;;;;;;96.70;26.30;;;;;;;8.32;82.86;98972.00;87241;1289;25369;-77
2022/11/01 07:20:09;;;;;;;63.60;24.70;;;;;;;8.34;82.83;98969.14;86893;1292;99069;-78
2022/11/01 07:22:11;;;;;;;105.40;27.00;;;;;;;8.35;82.77;98969.10;86958;1298;22515;-80
2022/11/01 07:24:13;;;;;;;102.70;27.60;;;;;;;8.37;82.96;98963.23;86801;1295;24363;-80
2022/11/01 07:26:15;;;;;;;151.60;29.50;;;;;;;8.41;83.05;98957.48;86886;1291;98163;-80
2022/11/01 07:28:17;;;;;;;130.00;28.00;;;;;;;8.45;82.99;98952.44;86556;1292;22527;-80
2022/11/01 07:30:19;;;;;;;151.00;30.30;;;;;;;8.50;82.92;98956.65;86870;1299;22223;-79
2022/11/01 07:32:21;;;;;;;123.30;29.00;;;;;;;8.55;82.72;98962.92;86573;1294;98322;-77
2022/11/01 07:34:24;;;;;;;83.50;26.90;;;;;;;8.59;83.03;98972.92;86636;1294;22580;-80
2022/11/01 07:36:25;;;;;;;116.50;28.10;;;;;;;8.61;82.98;98970.17;86847;1291;22506;-81
2022/11/01 07:38:27;;;;;;;73.50;28.00;;;;;;;8.66;82.92;98977.67;86694;1292;98532;-80
2022/11/01 07:40:29;;;;;;;132.70;28.30;;;;;;;8.71;83.12;98973.31;86745;1290;23151;-80
2022/11/01 07:42:30;;;;;;;106.90;27.60;;;;;;;8.74;83.25;98966.73;86573;1291;192075;-79
2022/11/01 07:44:32;;;;;;;109.20;29.10;;;;;;;8.77;83.18;98965.54;86501;1283;98293;-81
2022/11/01 07:46:34;;;;;;;95.30;27.60;;;;;;;8.79;83.23;98963.33;86607;1287;25909;-78
2022/11/01 07:48:35;;;;;;;113.60;27.90;;;;;;;8.81;83.01;98963.45;86545;1296;98652;-79
2022/11/01 07:50:39;;;;;;;89.50;28.30;;;;;;;8.82;83.04;98960.92;86723;1290;22522;-80
2022/11/01 07:52:40;;;;;;;96.00;29.30;;;;;;;8.85;83.09;98953.98;87081;1296;22453;-80
2022/11/01 07:54:42;;;;;;;106.10;28.80;;;;;;;8.90;83.16;98952.56;86582;1292;98312;-80
2022/11/01 07:56:44;;;;;;;77.00;28.60;;;;;;;8.93;83.11;98944.19;86638;1286;22519;-80
2022/11/01 07:58:45;;;;;;;86.90;29.60;;;;;;;8.98;83.31;98946.97;86820;1290;24334;-79
2022/11/01 08:00:47;;;;;;;83.80;28.80;;;;;;;8.99;83.33;98951.48;86882;1291;99503;-80
2022/11/01 08:02:49;;;;;;;92.20;29.20;;;;;;;9.00;83.08;98955.67;86796;1290;22480;-80
2022/11/01 08:04:50;;;;;;;76.30;30.00;;;;;;;9.07;83.23;98961.13;86758;1290;22440;-79
2022/11/01 08:06:52;;;;;;;73.00;29.30;;;;;;;9.09;83.06;98961.77;86425;1293;98635;-80
2022/11/01 08:08:54;;;;;;;92.40;32.50;;;;;;;9.08;83.04;98961.30;86559;1291;22445;-79
2022/11/01 08:10:58;;;;;;;77.10;30.70;;;;;;;9.13;83.20;98964.06;86590;1296;25390;-80
2022/11/01 08:13:04;;;;;;;80.00;32.40;;;;;;;9.15;83.13;98968.69;86317;1287;98097;-77
2022/11/01 08:15:07;;;;;;;66.20;28.50;;;;;;;9.18;83.16;98975.92;86621;1291;23953;-79
2022/11/01 08:17:08;;;;;;;82.30;33.50;;;;;;;9.20;83.30;98972.48;86682;1291;22906;-79
2022/11/01 08:19:10;;;;;;;77.00;32.90;;;;;;;9.23;83.24;98970.45;86608;1290;98294;-81
2022/11/01 08:21:17;;;;;;;70.80;32.40;;;;;;;9.26;83.18;98966.46;86832;1292;24381;-80
2022/11/01 08:23:19;;;;;;;71.00;34.50;;;;;;;9.28;83.20;98965.67;86842;1292;24486;-81
2022/11/01 08:25:21;;;;;;;76.20;33.50;;;;;;;9.32;83.40;98966.38;86570;1299;98610;-80
2022/11/01 08:27:22;;;;;;;87.70;34.50;;;;;;;9.36;83.45;98963.23;86531;1299;24259;-80
2022/11/01 08:29:24;;;;;;;81.10;34.80;;;;;;;9.41;83.26;98964.77;86718;1291;22988;-79
2022/11/01 08:31:26;;;;;;;75.20;35.10;;;;;;;9.46;83.36;98965.64;86597;1299;97915;-80
2022/11/01 08:33:27;;;;;;;78.60;37.00;;;;;;;9.49;83.47;98964.25;86614;1290;22493;-80
2022/11/01 08:35:31;;;;;;;82.70;36.60;;;;;;;9.54;83.57;98957.02;86554;1288;23085;-80
2022/11/01 08:37:32;;;;;;;87.00;38.60;;;;;;;9.60;83.45;98955.52;86256;1284;98404;-80
2022/11/01 08:39:34;;;;;;;72.40;36.60;;;;;;;9.66;83.53;98951.21;86517;1284;22506;-80
2022/11/01 08:41:36;;;;;;;81.70;37.40;;;;;;;9.72;83.52;98947.11;86345;1292;22522;-80
2022/11/01 08:43:38;;;;;;;76.60;35.70;;;;;;;9.77;83.53;98946.69;86398;1289;98143;-80
2022/11/01 08:45:40;;;;;;;72.30;36.00;;;;;;;9.83;83.56;98944.52;86067;1293;25221;-81
2022/11/01 08:47:41;;;;;;;82.40;37.90;;;;;;;9.90;83.51;98948.20;86395;1290;22592;-79
2022/11/01 08:49:43;;;;;;;64.90;35.60;;;;;;;9.98;83.37;98944.14;86381;1290;98295;-80
2022/11/01 08:51:44;;;;;;;61.30;35.70;;;;;;;10.04;83.73;98941.76;86514;1290;23994;-80
2022/11/01 08:53:46;;;;;;;68.70;36.60;;;;;;;10.10;83.47;98941.32;86463;1290;22494;-79
2022/11/01 08:55:53;;;;;;;63.50;33.60;;;;;;;10.16;83.43;98942.05;86253;1283;98054;-82
2022/11/01 08:57:58;;;;;;;65.30;35.70;;;;;;;10.24;83.45;98947.67;86783;1290;22796;-79
2022/11/01 08:59:59;;;;;;;66.00;33.60;;;;;;;10.30;83.43;98952.16;86381;1291;25452;-80
2022/11/01 09:02:01;;;;;;;53.90;32.70;;;;;;;10.37;83.52;98954.83;86389;1291;98449;-79
2022/11/01 09:04:03;;;;;;;52.30;32.70;;;;;;;10.44;83.55;98953.46;86376;1289;24253;-80
2022/11/01 09:06:05;;;;;;;52.40;29.30;;;;;;;10.51;83.50;98954.88;86413;1289;25545;-81
2022/11/01 09:08:07;;;;;;;44.60;28.20;;;;;;;10.58;83.46;98958.05;86351;1291;98682;-80
2022/11/01 09:10:09;;;;;;;49.20;29.70;;;;;;;10.64;83.46;98959.48;86614;1289;22485;-80
2022/11/01 09:12:11;;;;;;;42.40;27.30;;;;;;;10.72;83.45;98959.32;86472;1290;22509;-80
2022/11/01 09:14:13;;;;;;;42.40;27.00;;;;;;;10.78;83.40;98963.94;86194;1292;99315;-77
2022/11/01 09:16:15;;;;;;;44.20;26.30;;;;;;;10.83;83.32;98964.19;86504;1292;22480;-80
2022/11/01 09:18:17;;;;;;;47.90;28.30;;;;;;;10.89;83.33;98968.84;86347;1284;26623;-79
2022/11/01 09:20:19;;;;;;;40.70;26.50;;;;;;;10.96;83.37;98968.64;86292;1297;98136;-80
2022/11/01 09:22:21;;;;;;;43.10;25.20;;;;;;;11.02;83.32;98965.69;86291;1286;22501;-80
2022/11/01 09:24:23;;;;;;;40.40;24.80;;;;;;;11.10;83.33;98963.23;85973;1289;22863;-78
2022/11/01 09:26:28;;;;;;;43.50;26.40;;;;;;;11.18;83.21;98961.95;86202;1290;98507;-80
2022/11/01 09:28:30;;;;;;;43.70;26.50;;;;;;;11.26;83.14;98959.61;86961;1290;22960;-81
2022/11/01 09:30:32;;;;;;;41.00;25.50;;;;;;;11.36;83.17;98954.12;86659;1289;23944;-79
2022/11/01 09:32:38;;;;;;;41.50;25.90;;;;;;;11.46;83.15;98945.73;86578;1290;22760;-79
2022/11/01 09:34:40;;;;;;;43.50;25.30;;;;;;;11.59;83.22;98955.77;86482;1287;22510;-80
2022/11/01 09:36:42;;;;;;;43.40;25.90;;;;;;;11.66;82.90;98965.09;86582;1283;98282;-80
2022/11/01 09:38:46;;;;;;;42.30;26.20;;;;;;;11.73;82.91;98970.68;86612;1289;22516;-80
2022/11/01 09:41:18;;;;;;;38.30;24.30;;;;;;;11.80;82.86;98964.86;86784;1281;26793;-80
2022/11/01 09:43:25;;;;;;;42.00;23.60;;;;;;;11.98;83.05;98965.73;86887;1287;98164;-76